Time,TemperatureF,DewpointF,PressureIn,WindDirection,WindDirectionDegrees,WindSpeedMPH,WindSpeedGustMPH,Humidity,HourlyPrecipIn,Conditions,Clouds,dailyrainin,SoftwareType,DateUTC
2013-01-11 00:00:00,22.5,13.6,29.51,ESE,117,0.0,7.0,68,0.00,,---,0.00,VWS V14.01,2013-01-11 07:00:00,
2013-01-11 00:01:00,22.5,13.6,29.51,ESE,117,0.0,7.0,68,0.00,,---,0.00,VWS V14.01,2013-01-11 07:01:00,
2013-01-11 00:10:00,21.7,12.8,29.50,ESE,117,3.0,4.0,68,0.00,,---,0.00,VWS V14.01,2013-01-11 07:10:00,
2013-01-11 00:11:00,21.7,12.8,29.50,ESE,117,3.0,4.0,68,0.00,,---,0.00,VWS V14.01,2013-01-11 07:11:00,
2013-01-11 00:20:00,21.4,13.1,29.51,ESE,117,3.0,6.0,70,0.00,,---,0.00,VWS V14.01,2013-01-11 07:20:00,
2013-01-11 00:21:00,21.4,13.1,29.51,ESE,117,3.0,6.0,70,0.00,,---,0.00,VWS V14.01,2013-01-11 07:21:00,
2013-01-11 00:30:00,21.8,13.5,29.48,ESE,117,4.0,5.0,70,0.00,,---,0.00,VWS V14.01,2013-01-11 07:30:00,
2013-01-11 00:31:00,21.8,13.5,29.48,ESE,117,4.0,5.0,70,0.00,,---,0.00,VWS V14.01,2013-01-11 07:31:00,
2013-01-11 00:40:00,22.7,14.1,29.47,SE,125,4.0,10.0,69,0.00,,---,0.00,VWS V14.01,2013-01-11 07:40:00,
2013-01-11 00:41:00,22.7,14.1,29.47,SE,125,4.0,10.0,69,0.00,,---,0.00,VWS V14.01,2013-01-11 07:41:00,
2013-01-11 00:50:00,23.1,13.8,29.46,SE,125,0.0,7.0,67,0.00,,---,0.00,VWS V14.01,2013-01-11 07:50:00,
2013-01-11 00:51:00,23.1,13.8,29.46,SE,125,0.0,7.0,67,0.00,,---,0.00,VWS V14.01,2013-01-11 07:51:00,
2013-01-11 01:00:00,23.3,13.6,29.46,SE,133,2.0,11.0,66,0.00,,---,0.00,VWS V14.01,2013-01-11 08:00:00,
2013-01-11 01:01:00,23.3,13.6,29.46,SE,133,2.0,11.0,66,0.00,,---,0.00,VWS V14.01,2013-01-11 08:01:00,
2013-01-11 01:10:00,23.3,13.3,29.46,SE,133,5.0,7.0,65,0.00,,---,0.00,VWS V14.01,2013-01-11 08:10:00,
2013-01-11 01:11:00,23.3,13.3,29.46,SE,133,5.0,7.0,65,0.00,,---,0.00,VWS V14.01,2013-01-11 08:11:00,
2013-01-11 01:20:00,23.4,13.4,29.45,SE,133,5.0,7.0,65,0.00,,---,0.00,VWS V14.01,2013-01-11 08:20:00,
2013-01-11 01:21:00,23.4,13.4,29.45,SE,133,5.0,7.0,65,0.00,,---,0.00,VWS V14.01,2013-01-11 08:21:00,
2013-01-11 01:30:00,23.4,13.7,29.45,SE,130,4.0,7.0,66,0.00,,---,0.00,VWS V14.01,2013-01-11 08:30:00,
2013-01-11 01:31:00,23.4,13.7,29.45,SE,130,4.0,7.0,66,0.00,,---,0.00,VWS V14.01,2013-01-11 08:31:00,
2013-01-11 01:40:00,23.2,13.5,29.43,ESE,108,8.0,12.0,66,0.00,,---,0.00,VWS V14.01,2013-01-11 08:40:00,
2013-01-11 01:41:00,23.2,13.5,29.43,ESE,108,8.0,12.0,66,0.00,,---,0.00,VWS V14.01,2013-01-11 08:41:00,
2013-01-11 01:50:00,23.7,13.7,29.42,ESE,117,8.0,17.0,65,0.00,,---,0.00,VWS V14.01,2013-01-11 08:50:00,
2013-01-11 01:51:00,23.7,13.7,29.42,ESE,117,8.0,17.0,65,0.00,,---,0.00,VWS V14.01,2013-01-11 08:51:00,
2013-01-11 02:00:00,23.4,13.7,29.41,East,93,5.0,13.0,66,0.00,,---,0.00,VWS V14.01,2013-01-11 09:00:00,
2013-01-11 02:01:00,23.4,13.7,29.41,East,93,5.0,13.0,66,0.00,,---,0.00,VWS V14.01,2013-01-11 09:01:00,
2013-01-11 02:10:00,23.4,13.7,29.39,East,99,4.0,11.0,66,0.00,,---,0.00,VWS V14.01,2013-01-11 09:10:00,
2013-01-11 02:11:00,23.4,13.7,29.39,East,99,4.0,11.0,66,0.00,,---,0.00,VWS V14.01,2013-01-11 09:11:00,
2013-01-11 02:20:00,23.2,13.9,29.38,East,101,9.0,9.0,67,0.00,,---,0.00,VWS V14.01,2013-01-11 09:20:00,
2013-01-11 02:21:00,23.2,13.9,29.38,East,101,9.0,9.0,67,0.00,,---,0.00,VWS V14.01,2013-01-11 09:21:00,
2013-01-11 02:30:00,23.1,14.5,29.38,ESE,118,6.0,12.0,69,0.00,,---,0.00,VWS V14.01,2013-01-11 09:30:00,
2013-01-11 02:31:00,23.1,14.5,29.38,ESE,118,6.0,12.0,69,0.00,,---,0.00,VWS V14.01,2013-01-11 09:31:00,
2013-01-11 02:40:00,22.9,14.9,29.38,ESE,113,6.0,12.0,71,0.00,,---,0.00,VWS V14.01,2013-01-11 09:40:00,
2013-01-11 02:41:00,22.9,14.9,29.38,ESE,113,6.0,12.0,71,0.00,,---,0.00,VWS V14.01,2013-01-11 09:41:00,
2013-01-11 02:50:00,22.7,15.1,29.36,ESE,109,2.0,10.0,72,0.00,,---,0.00,VWS V14.01,2013-01-11 09:50:00,
2013-01-11 02:51:00,22.7,15.1,29.36,ESE,109,2.0,10.0,72,0.00,,---,0.00,VWS V14.01,2013-01-11 09:51:00,
2013-01-11 03:00:00,22.7,15.4,29.35,ESE,114,5.0,11.0,73,0.00,,---,0.00,VWS V14.01,2013-01-11 10:00:00,
2013-01-11 03:01:00,22.7,15.4,29.35,ESE,114,5.0,11.0,73,0.00,,---,0.00,VWS V14.01,2013-01-11 10:01:00,
2013-01-11 03:10:00,22.6,15.6,29.36,ESE,110,5.0,10.0,74,0.00,,---,0.00,VWS V14.01,2013-01-11 10:10:00,
2013-01-11 03:11:00,22.6,15.6,29.36,ESE,110,5.0,10.0,74,0.00,,---,0.00,VWS V14.01,2013-01-11 10:11:00,
2013-01-11 03:20:00,22.5,16.1,29.35,ESE,103,12.0,15.0,76,0.00,,---,0.00,VWS V14.01,2013-01-11 10:20:00,
2013-01-11 03:21:00,22.5,16.1,29.35,ESE,103,12.0,15.0,76,0.00,,---,0.00,VWS V14.01,2013-01-11 10:21:00,
2013-01-11 03:30:00,22.4,16.0,29.34,East,100,3.0,13.0,76,0.00,,---,0.00,VWS V14.01,2013-01-11 10:30:00,
2013-01-11 03:31:00,22.4,16.0,29.34,East,100,3.0,13.0,76,0.00,,---,0.00,VWS V14.01,2013-01-11 10:31:00,
2013-01-11 03:40:00,22.3,16.2,29.33,ESE,103,6.0,11.0,77,0.00,,---,0.00,VWS V14.01,2013-01-11 10:40:00,
2013-01-11 03:41:00,22.3,16.2,29.33,ESE,103,6.0,11.0,77,0.00,,---,0.00,VWS V14.01,2013-01-11 10:41:00,
2013-01-11 03:50:00,22.7,16.9,29.32,ESE,111,5.0,10.0,78,0.00,,---,0.00,VWS V14.01,2013-01-11 10:50:00,
2013-01-11 03:51:00,22.7,16.9,29.32,ESE,111,5.0,10.0,78,0.00,,---,0.00,VWS V14.01,2013-01-11 10:51:00,
2013-01-11 04:00:00,22.5,16.7,29.31,East,95,9.0,11.0,78,0.00,,---,0.00,VWS V14.01,2013-01-11 11:00:00,
2013-01-11 04:01:00,22.5,16.7,29.31,East,95,9.0,11.0,78,0.00,,---,0.00,VWS V14.01,2013-01-11 11:01:00,
2013-01-11 04:10:00,22.4,16.6,29.33,East,84,3.0,9.0,78,0.00,,---,0.00,VWS V14.01,2013-01-11 11:10:00,
2013-01-11 04:11:00,22.4,16.6,29.33,East,84,3.0,9.0,78,0.00,,---,0.00,VWS V14.01,2013-01-11 11:11:00,
2013-01-11 04:20:00,22.5,17.0,29.32,East,99,7.0,17.0,79,0.00,,---,0.00,VWS V14.01,2013-01-11 11:20:00,
2013-01-11 04:21:00,22.5,17.0,29.32,East,99,7.0,17.0,79,0.00,,---,0.00,VWS V14.01,2013-01-11 11:21:00,
2013-01-11 04:30:00,22.4,16.9,29.32,East,92,9.0,14.0,79,0.00,,---,0.00,VWS V14.01,2013-01-11 11:30:00,
2013-01-11 04:31:00,22.4,16.9,29.32,East,92,9.0,14.0,79,0.00,,---,0.00,VWS V14.01,2013-01-11 11:31:00,
2013-01-11 04:40:00,22.3,17.1,29.31,ESE,117,9.0,16.0,80,0.00,,---,0.00,VWS V14.01,2013-01-11 11:40:00,
2013-01-11 04:41:00,22.3,17.1,29.31,ESE,117,9.0,16.0,80,0.00,,---,0.00,VWS V14.01,2013-01-11 11:41:00,
2013-01-11 04:50:00,22.0,17.1,29.31,SE,132,8.0,15.0,81,0.00,,---,0.00,VWS V14.01,2013-01-11 11:50:00,
2013-01-11 04:51:00,22.0,17.1,29.31,SE,132,8.0,15.0,81,0.00,,---,0.00,VWS V14.01,2013-01-11 11:51:00,
2013-01-11 05:00:00,21.6,17.2,29.31,ESE,121,9.0,13.0,83,0.00,,---,0.00,VWS V14.01,2013-01-11 12:00:00,
2013-01-11 05:01:00,21.6,17.2,29.31,ESE,121,9.0,13.0,83,0.00,,---,0.00,VWS V14.01,2013-01-11 12:01:00,
2013-01-11 05:10:00,21.5,17.4,29.33,SE,131,6.0,13.0,84,0.00,,---,0.00,VWS V14.01,2013-01-11 12:10:00,
2013-01-11 05:11:00,21.5,17.4,29.33,SE,131,6.0,13.0,84,0.00,,---,0.00,VWS V14.01,2013-01-11 12:11:00,
2013-01-11 05:20:00,21.2,17.4,29.33,SE,133,7.0,12.0,85,0.00,,---,0.00,VWS V14.01,2013-01-11 12:20:00,
2013-01-11 05:21:00,21.2,17.4,29.33,SE,133,7.0,12.0,85,0.00,,---,0.00,VWS V14.01,2013-01-11 12:21:00,
2013-01-11 05:30:00,20.9,17.1,29.33,SE,138,2.0,12.0,85,0.00,,---,0.00,VWS V14.01,2013-01-11 12:30:00,
2013-01-11 05:31:00,20.9,17.1,29.33,SE,138,2.0,12.0,85,0.00,,---,0.00,VWS V14.01,2013-01-11 12:31:00,
2013-01-11 05:40:00,20.9,17.4,29.32,SE,138,0.0,4.0,86,0.00,,---,0.00,VWS V14.01,2013-01-11 12:40:00,
2013-01-11 05:41:00,20.9,17.4,29.32,SE,138,0.0,4.0,86,0.00,,---,0.00,VWS V14.01,2013-01-11 12:41:00,
2013-01-11 05:50:00,20.8,17.3,29.31,SE,138,0.0,0.0,86,0.00,,---,0.00,VWS V14.01,2013-01-11 12:50:00,
2013-01-11 05:51:00,20.8,17.3,29.31,SE,138,0.0,0.0,86,0.00,,---,0.00,VWS V14.01,2013-01-11 12:51:00,
2013-01-11 06:00:00,21.2,17.7,29.31,SE,138,3.0,3.0,86,0.00,,---,0.00,VWS V14.01,2013-01-11 13:00:00,
2013-01-11 06:01:00,21.2,17.7,29.31,SE,138,3.0,3.0,86,0.00,,---,0.00,VWS V14.01,2013-01-11 13:01:00,
2013-01-11 06:10:00,21.8,18.3,29.35,SSE,147,12.0,15.0,86,0.00,,---,0.00,VWS V14.01,2013-01-11 13:10:00,
2013-01-11 06:11:00,21.8,18.3,29.35,SSE,147,12.0,15.0,86,0.00,,---,0.00,VWS V14.01,2013-01-11 13:11:00,
2013-01-11 06:20:00,22.0,18.2,29.35,SSE,153,5.0,15.0,85,0.00,,---,0.00,VWS V14.01,2013-01-11 13:20:00,
2013-01-11 06:21:00,22.0,18.2,29.35,SSE,153,5.0,15.0,85,0.00,,---,0.00,VWS V14.01,2013-01-11 13:21:00,
2013-01-11 06:30:00,22.2,18.4,29.34,SE,141,5.0,13.0,85,0.00,,---,0.00,VWS V14.01,2013-01-11 13:30:00,
2013-01-11 06:31:00,22.2,18.4,29.34,SE,141,5.0,13.0,85,0.00,,---,0.00,VWS V14.01,2013-01-11 13:31:00,
2013-01-11 06:40:00,21.8,18.3,29.35,West,266,4.0,15.0,86,0.00,,---,0.00,VWS V14.01,2013-01-11 13:40:00,
2013-01-11 06:41:00,21.8,18.3,29.35,West,266,4.0,15.0,86,0.00,,---,0.00,VWS V14.01,2013-01-11 13:41:00,
2013-01-11 06:50:00,21.4,18.1,29.37,West,266,4.0,5.0,87,0.00,,---,0.00,VWS V14.01,2013-01-11 13:50:00,
2013-01-11 06:51:00,21.4,18.1,29.37,West,266,4.0,5.0,87,0.00,,---,0.00,VWS V14.01,2013-01-11 13:51:00,
2013-01-11 07:00:00,21.8,17.7,29.38,West,263,17.0,21.0,84,0.00,,---,0.00,VWS V14.01,2013-01-11 14:00:00,
2013-01-11 07:01:00,21.8,17.7,29.38,West,263,17.0,21.0,84,0.00,,---,0.00,VWS V14.01,2013-01-11 14:01:00,
2013-01-11 07:10:00,22.4,16.3,29.35,West,267,12.0,24.0,77,0.00,,---,0.00,VWS V14.01,2013-01-11 14:10:00,
2013-01-11 07:11:00,22.4,16.3,29.35,West,267,12.0,24.0,77,0.00,,---,0.00,VWS V14.01,2013-01-11 14:11:00,
2013-01-11 07:20:00,22.4,15.7,29.37,West,259,11.0,16.0,75,0.00,,---,0.00,VWS V14.01,2013-01-11 14:20:00,
2013-01-11 07:21:00,22.4,15.7,29.37,West,259,11.0,16.0,75,0.00,,---,0.00,VWS V14.01,2013-01-11 14:21:00,
2013-01-11 07:30:00,22.7,15.1,29.35,WNW,295,7.0,18.0,72,0.00,,---,0.00,VWS V14.01,2013-01-11 14:30:00,
2013-01-11 07:31:00,22.7,15.1,29.35,WNW,295,7.0,18.0,72,0.00,,---,0.00,VWS V14.01,2013-01-11 14:31:00,
2013-01-11 07:40:00,22.0,14.7,29.36,WNW,291,11.0,13.0,73,0.00,,---,0.00,VWS V14.01,2013-01-11 14:40:00,
2013-01-11 07:41:00,22.0,14.7,29.36,WNW,291,11.0,13.0,73,0.00,,---,0.00,VWS V14.01,2013-01-11 14:41:00,
2013-01-11 07:50:00,22.2,14.6,29.38,West,279,6.0,14.0,72,0.00,,---,0.00,VWS V14.01,2013-01-11 14:50:00,
2013-01-11 07:51:00,22.2,14.6,29.38,West,279,6.0,14.0,72,0.00,,---,0.00,VWS V14.01,2013-01-11 14:51:00,
2013-01-11 08:00:00,21.9,13.9,29.36,West,279,7.0,10.0,71,0.00,,---,0.00,VWS V14.01,2013-01-11 15:00:00,
2013-01-11 08:01:00,21.9,14.0,29.36,West,279,7.0,10.0,71,0.00,,---,0.00,VWS V14.01,2013-01-11 15:01:00,
2013-01-11 08:10:00,22.0,13.7,29.35,West,263,10.0,14.0,70,0.00,,---,0.00,VWS V14.01,2013-01-11 15:10:00,
2013-01-11 08:11:00,22.0,13.7,29.35,West,263,10.0,14.0,70,0.00,,---,0.00,VWS V14.01,2013-01-11 15:11:00,
2013-01-11 08:20:00,21.9,13.6,29.33,West,263,0.0,11.0,70,0.00,,---,0.00,VWS V14.01,2013-01-11 15:20:00,
2013-01-11 08:21:00,21.9,13.6,29.33,West,263,0.0,11.0,70,0.00,,---,0.00,VWS V14.01,2013-01-11 15:21:00,
2013-01-11 08:30:00,22.1,14.1,29.36,WNW,288,15.0,15.0,71,0.00,,---,0.00,VWS V14.01,2013-01-11 15:30:00,
2013-01-11 08:31:00,22.1,14.1,29.36,WNW,288,15.0,15.0,71,0.00,,---,0.00,VWS V14.01,2013-01-11 15:31:00,
2013-01-11 08:40:00,19.7,12.1,29.38,West,280,20.0,29.0,72,0.00,,---,0.00,VWS V14.01,2013-01-11 15:40:00,
2013-01-11 08:41:00,19.7,12.1,29.38,West,280,20.0,29.0,72,0.00,,---,0.00,VWS V14.01,2013-01-11 15:41:00,
2013-01-11 08:50:00,18.2,10.7,29.41,West,267,23.0,30.0,72,0.00,,---,0.00,VWS V14.01,2013-01-11 15:50:00,
2013-01-11 08:51:00,18.2,10.7,29.41,West,267,23.0,30.0,72,0.00,,---,0.00,VWS V14.01,2013-01-11 15:51:00,
2013-01-11 09:00:00,17.3,10.4,29.42,West,261,10.0,29.0,74,0.00,,---,0.00,VWS V14.01,2013-01-11 16:00:00,
2013-01-11 09:01:00,17.3,10.4,29.42,West,261,10.0,29.0,74,0.00,,---,0.00,VWS V14.01,2013-01-11 16:01:00,
2013-01-11 09:10:00,16.3,10.1,29.46,WSW,258,20.0,33.0,76,0.00,,---,0.00,VWS V14.01,2013-01-11 16:10:00,
2013-01-11 09:11:00,16.3,10.1,29.46,WSW,258,20.0,33.0,76,0.00,,---,0.00,VWS V14.01,2013-01-11 16:11:00,
2013-01-11 09:20:00,15.9,8.5,29.46,West,272,19.0,33.0,72,0.00,,---,0.00,VWS V14.01,2013-01-11 16:20:00,
2013-01-11 09:21:00,15.9,8.5,29.46,West,272,19.0,33.0,72,0.00,,---,0.00,VWS V14.01,2013-01-11 16:21:00,
2013-01-11 09:30:00,16.2,8.5,29.47,West,265,32.0,35.0,71,0.00,,---,0.00,VWS V14.01,2013-01-11 16:30:00,
2013-01-11 09:31:00,16.2,8.5,29.47,West,265,32.0,35.0,71,0.00,,---,0.00,VWS V14.01,2013-01-11 16:31:00,
2013-01-11 09:40:00,17.0,5.9,29.46,West,268,28.0,36.0,61,0.00,,---,0.00,VWS V14.01,2013-01-11 16:40:00,
2013-01-11 09:41:00,17.0,5.9,29.46,West,268,28.0,36.0,61,0.00,,---,0.00,VWS V14.01,2013-01-11 16:41:00,
2013-01-11 09:50:00,17.3,2.3,29.47,WSW,248,25.0,38.0,51,0.00,,---,0.00,VWS V14.01,2013-01-11 16:50:00,
2013-01-11 09:51:00,17.3,2.3,29.47,WSW,248,25.0,38.0,51,0.00,,---,0.00,VWS V14.01,2013-01-11 16:51:00,
2013-01-11 10:00:00,17.8,-0.9,29.48,WSW,252,24.0,40.0,43,0.00,,---,0.00,VWS V14.01,2013-01-11 17:00:00,
2013-01-11 10:01:00,17.8,-0.9,29.48,WSW,252,24.0,40.0,43,0.00,,---,0.00,VWS V14.01,2013-01-11 17:01:00,
2013-01-11 10:10:00,17.9,-1.3,29.48,WSW,255,32.0,39.0,42,0.00,,---,0.00,VWS V14.01,2013-01-11 17:10:00,
2013-01-11 10:11:00,17.9,-1.3,29.48,WSW,255,32.0,39.0,42,0.00,,---,0.00,VWS V14.01,2013-01-11 17:11:00,
2013-01-11 10:20:00,18.1,-1.6,29.49,West,260,30.0,36.0,41,0.00,,---,0.00,VWS V14.01,2013-01-11 17:20:00,
2013-01-11 10:21:00,18.1,-1.6,29.49,West,260,30.0,36.0,41,0.00,,---,0.00,VWS V14.01,2013-01-11 17:21:00,
2013-01-11 10:30:00,18.2,-2.6,29.48,WSW,248,27.0,40.0,39,0.00,,---,0.00,VWS V14.01,2013-01-11 17:30:00,
2013-01-11 10:31:00,18.2,-2.6,29.48,WSW,248,27.0,40.0,39,0.00,,---,0.00,VWS V14.01,2013-01-11 17:31:00,
2013-01-11 10:40:00,17.8,-4.6,29.48,West,263,33.0,40.0,36,0.00,,---,0.00,VWS V14.01,2013-01-11 17:40:00,
2013-01-11 10:41:00,17.8,-4.6,29.48,West,263,33.0,40.0,36,0.00,,---,0.00,VWS V14.01,2013-01-11 17:41:00,
2013-01-11 10:50:00,17.7,-5.3,29.50,WSW,256,28.0,39.0,35,0.00,,---,0.00,VWS V14.01,2013-01-11 17:50:00,
2013-01-11 10:51:00,17.7,-5.3,29.50,WSW,256,28.0,39.0,35,0.00,,---,0.00,VWS V14.01,2013-01-11 17:51:00,
2013-01-11 11:00:00,17.6,-6.0,29.51,WSW,248,21.0,38.0,34,0.00,,---,0.00,VWS V14.01,2013-01-11 18:00:00,
2013-01-11 11:01:00,17.6,-6.0,29.51,WSW,248,21.0,38.0,34,0.00,,---,0.00,VWS V14.01,2013-01-11 18:01:00,
2013-01-11 11:10:00,17.3,-4.5,29.54,WNW,286,15.0,33.0,37,0.00,,---,0.00,VWS V14.01,2013-01-11 18:10:00,
2013-01-11 11:11:00,17.3,-4.5,29.54,WNW,286,15.0,33.0,37,0.00,,---,0.00,VWS V14.01,2013-01-11 18:11:00,
2013-01-11 11:20:00,17.2,-5.2,29.54,WSW,242,18.0,29.0,36,0.00,,---,0.00,VWS V14.01,2013-01-11 18:20:00,
2013-01-11 11:21:00,17.2,-5.2,29.54,WSW,242,18.0,29.0,36,0.00,,---,0.00,VWS V14.01,2013-01-11 18:21:00,
2013-01-11 11:30:00,17.0,-5.3,29.54,West,259,31.0,31.0,36,0.00,,---,0.00,VWS V14.01,2013-01-11 18:30:00,
2013-01-11 11:31:00,17.0,-5.3,29.54,West,259,31.0,31.0,36,0.00,,---,0.00,VWS V14.01,2013-01-11 18:31:00,
2013-01-11 11:40:00,16.8,-3.3,29.54,West,265,9.0,31.0,40,0.00,,---,0.00,VWS V14.01,2013-01-11 18:40:00,
2013-01-11 11:41:00,16.8,-3.3,29.54,West,265,9.0,31.0,40,0.00,,---,0.00,VWS V14.01,2013-01-11 18:41:00,
2013-01-11 11:50:00,17.8,-2.4,29.53,WSW,242,15.0,17.0,40,0.00,,---,0.00,VWS V14.01,2013-01-11 18:50:00,
2013-01-11 11:51:00,17.8,-2.4,29.53,WSW,242,15.0,17.0,40,0.00,,---,0.00,VWS V14.01,2013-01-11 18:51:00,
2013-01-11 12:00:00,17.3,-2.9,29.54,West,272,12.0,20.0,40,0.00,,---,0.00,VWS V14.01,2013-01-11 19:00:00,
2013-01-11 12:01:00,17.3,-2.9,29.54,West,272,12.0,20.0,40,0.00,,---,0.00,VWS V14.01,2013-01-11 19:01:00,
2013-01-11 12:10:00,17.2,-4.0,29.53,West,279,14.0,19.0,38,0.00,,---,0.00,VWS V14.01,2013-01-11 19:10:00,
2013-01-11 12:11:00,17.2,-4.0,29.53,West,279,14.0,19.0,38,0.00,,---,0.00,VWS V14.01,2013-01-11 19:11:00,
2013-01-11 12:20:00,18.1,-3.8,29.53,West,277,11.0,18.0,37,0.00,,---,0.00,VWS V14.01,2013-01-11 19:20:00,
2013-01-11 12:21:00,18.1,-3.8,29.53,West,277,11.0,18.0,37,0.00,,---,0.00,VWS V14.01,2013-01-11 19:21:00,
2013-01-11 12:30:00,16.7,-7.4,29.54,WSW,250,12.0,35.0,33,0.00,,---,0.00,VWS V14.01,2013-01-11 19:30:00,
2013-01-11 12:31:00,16.7,-7.4,29.54,WSW,250,12.0,35.0,33,0.00,,---,0.00,VWS V14.01,2013-01-11 19:31:00,
2013-01-11 12:40:00,16.1,-9.2,29.56,SW,234,19.0,28.0,31,0.00,,---,0.00,VWS V14.01,2013-01-11 19:40:00,
2013-01-11 12:41:00,16.1,-9.2,29.56,SW,234,19.0,28.0,31,0.00,,---,0.00,VWS V14.01,2013-01-11 19:41:00,
2013-01-11 12:50:00,15.4,-8.6,29.56,West,267,13.0,30.0,33,0.00,,---,0.00,VWS V14.01,2013-01-11 19:50:00,
2013-01-11 12:51:00,15.4,-8.6,29.56,West,267,13.0,30.0,33,0.00,,---,0.00,VWS V14.01,2013-01-11 19:51:00,
2013-01-11 13:00:00,15.2,-8.7,29.58,West,259,17.0,36.0,33,0.00,,---,0.00,VWS V14.01,2013-01-11 20:00:00,
2013-01-11 13:01:00,15.2,-8.7,29.58,West,259,17.0,36.0,33,0.00,,---,0.00,VWS V14.01,2013-01-11 20:01:00,
2013-01-11 13:10:00,15.2,-9.4,29.57,WSW,238,32.0,37.0,32,0.00,,---,0.00,VWS V14.01,2013-01-11 20:10:00,
2013-01-11 13:11:00,15.2,-9.4,29.57,WSW,238,32.0,37.0,32,0.00,,---,0.00,VWS V14.01,2013-01-11 20:11:00,
2013-01-11 13:20:00,15.0,-8.9,29.57,WSW,239,15.0,32.0,33,0.00,,---,0.00,VWS V14.01,2013-01-11 20:20:00,
2013-01-11 13:21:00,15.0,-8.9,29.57,WSW,239,15.0,32.0,33,0.00,,---,0.00,VWS V14.01,2013-01-11 20:21:00,
2013-01-11 13:30:00,14.4,-10.1,29.59,SW,236,17.0,27.0,32,0.00,,---,0.00,VWS V14.01,2013-01-11 20:30:00,
2013-01-11 13:31:00,14.4,-10.1,29.59,SW,236,17.0,27.0,32,0.00,,---,0.00,VWS V14.01,2013-01-11 20:31:00,
2013-01-11 13:40:00,14.6,-9.3,29.58,SW,231,18.0,28.0,33,0.00,,---,0.00,VWS V14.01,2013-01-11 20:40:00,
2013-01-11 13:41:00,14.6,-9.3,29.58,SW,231,18.0,28.0,33,0.00,,---,0.00,VWS V14.01,2013-01-11 20:41:00,
2013-01-11 13:50:00,15.1,-6.5,29.58,WSW,242,13.0,27.0,37,0.00,,---,0.00,VWS V14.01,2013-01-11 20:50:00,
2013-01-11 13:51:00,15.1,-6.5,29.58,WSW,242,13.0,27.0,37,0.00,,---,0.00,VWS V14.01,2013-01-11 20:51:00,
2013-01-11 14:00:00,15.3,-6.9,29.59,West,281,15.0,23.0,36,0.00,,---,0.00,VWS V14.01,2013-01-11 21:00:00,
2013-01-11 14:01:00,15.3,-6.9,29.59,West,281,15.0,23.0,36,0.00,,---,0.00,VWS V14.01,2013-01-11 21:01:00,
2013-01-11 14:10:00,14.6,-2.9,29.59,WNW,286,15.0,26.0,45,0.00,,---,0.00,VWS V14.01,2013-01-11 21:10:00,
2013-01-11 14:11:00,14.6,-2.9,29.59,WNW,286,15.0,26.0,45,0.00,,---,0.00,VWS V14.01,2013-01-11 21:11:00,
2013-01-11 14:20:00,14.3,-5.6,29.62,WNW,285,5.0,24.0,40,0.00,,---,0.00,VWS V14.01,2013-01-11 21:20:00,
2013-01-11 14:21:00,14.3,-5.6,29.62,WNW,285,5.0,24.0,40,0.00,,---,0.00,VWS V14.01,2013-01-11 21:21:00,
2013-01-11 14:30:00,14.2,-4.7,29.62,West,280,7.0,22.0,42,0.00,,---,0.00,VWS V14.01,2013-01-11 21:30:00,
2013-01-11 14:31:00,14.2,-4.7,29.62,West,280,7.0,22.0,42,0.00,,---,0.00,VWS V14.01,2013-01-11 21:31:00,
2013-01-11 14:40:00,13.8,-3.6,29.62,West,267,5.0,18.0,45,0.00,,---,0.00,VWS V14.01,2013-01-11 21:40:00,
2013-01-11 14:41:00,13.8,-3.6,29.62,West,267,5.0,18.0,45,0.00,,---,0.00,VWS V14.01,2013-01-11 21:41:00,
2013-01-11 14:50:00,13.6,-2.0,29.63,WNW,284,6.0,13.0,49,0.00,,---,0.00,VWS V14.01,2013-01-11 21:50:00,
2013-01-11 14:51:00,13.6,-2.0,29.63,WNW,284,6.0,13.0,49,0.00,,---,0.00,VWS V14.01,2013-01-11 21:51:00,
2013-01-11 15:00:00,13.5,-3.4,29.64,West,273,16.0,19.0,46,0.00,,---,0.00,VWS V14.01,2013-01-11 22:00:00,
2013-01-11 15:01:00,13.5,-3.4,29.64,West,273,16.0,19.0,46,0.00,,---,0.00,VWS V14.01,2013-01-11 22:01:00,
2013-01-11 15:10:00,13.6,-2.0,29.64,SW,236,9.0,19.0,49,0.00,,---,0.00,VWS V14.01,2013-01-11 22:10:00,
2013-01-11 15:11:00,13.6,-2.0,29.64,SW,236,9.0,19.0,49,0.00,,---,0.00,VWS V14.01,2013-01-11 22:11:00,
2013-01-11 15:20:00,13.3,-1.9,29.64,SW,235,4.0,9.0,50,0.00,,---,0.00,VWS V14.01,2013-01-11 22:20:00,
2013-01-11 15:21:00,13.3,-1.9,29.64,SW,235,4.0,9.0,50,0.00,,---,0.00,VWS V14.01,2013-01-11 22:21:00,
2013-01-11 15:30:00,13.8,-4.6,29.64,WSW,238,0.0,13.0,43,0.00,,---,0.00,VWS V14.01,2013-01-11 22:30:00,
2013-01-11 15:31:00,13.8,-4.6,29.64,WSW,238,0.0,13.0,43,0.00,,---,0.00,VWS V14.01,2013-01-11 22:31:00,
2013-01-11 15:40:00,14.2,-5.2,29.65,West,271,9.0,16.0,41,0.00,,---,0.00,VWS V14.01,2013-01-11 22:40:00,
2013-01-11 15:41:00,14.2,-5.2,29.65,West,271,9.0,16.0,41,0.00,,---,0.00,VWS V14.01,2013-01-11 22:41:00,
2013-01-11 15:50:00,14.3,-5.1,29.66,West,279,14.0,17.0,41,0.00,,---,0.00,VWS V14.01,2013-01-11 22:50:00,
2013-01-11 15:51:00,14.3,-5.1,29.66,West,279,14.0,17.0,41,0.00,,---,0.00,VWS V14.01,2013-01-11 22:51:00,
2013-01-11 16:00:00,14.2,-6.2,29.66,WSW,254,0.0,17.0,39,0.00,,---,0.00,VWS V14.01,2013-01-11 23:00:00,
2013-01-11 16:01:00,14.2,-6.2,29.66,WSW,254,0.0,17.0,39,0.00,,---,0.00,VWS V14.01,2013-01-11 23:01:00,
2013-01-11 16:10:00,13.9,-5.9,29.66,WSW,239,11.0,15.0,40,0.00,,---,0.00,VWS V14.01,2013-01-11 23:10:00,
2013-01-11 16:11:00,13.9,-5.9,29.66,WSW,239,11.0,15.0,40,0.00,,---,0.00,VWS V14.01,2013-01-11 23:11:00,
2013-01-11 16:20:00,13.7,-5.1,29.67,West,276,6.0,22.0,42,0.00,,---,0.00,VWS V14.01,2013-01-11 23:20:00,
2013-01-11 16:21:00,13.7,-5.1,29.67,West,276,6.0,22.0,42,0.00,,---,0.00,VWS V14.01,2013-01-11 23:21:00,
2013-01-11 16:30:00,13.1,-2.5,29.69,WSW,252,4.0,16.0,49,0.00,,---,0.00,VWS V14.01,2013-01-11 23:30:00,
2013-01-11 16:31:00,13.1,-2.5,29.69,WSW,252,4.0,16.0,49,0.00,,---,0.00,VWS V14.01,2013-01-11 23:31:00,
2013-01-11 16:40:00,13.0,-3.9,29.70,West,281,14.0,17.0,46,0.00,,---,0.00,VWS V14.01,2013-01-11 23:40:00,
2013-01-11 16:41:00,13.0,-3.9,29.70,West,281,14.0,17.0,46,0.00,,---,0.00,VWS V14.01,2013-01-11 23:41:00,
2013-01-11 16:50:00,13.0,-3.9,29.70,WNW,284,13.0,21.0,46,0.00,,---,0.00,VWS V14.01,2013-01-11 23:50:00,
2013-01-11 16:51:00,13.0,-3.9,29.70,WNW,284,13.0,21.0,46,0.00,,---,0.00,VWS V14.01,2013-01-11 23:51:00,
2013-01-11 17:00:00,12.8,-2.3,29.70,WSW,257,17.0,19.0,50,0.00,,---,0.00,VWS V14.01,2013-01-12 00:00:00,
2013-01-11 17:01:00,12.8,-2.3,29.70,WSW,257,17.0,19.0,50,0.00,,---,0.00,VWS V14.01,2013-01-12 00:01:00,
2013-01-11 17:10:00,12.3,-2.8,29.71,WSW,258,11.0,19.0,50,0.00,,---,0.00,VWS V14.01,2013-01-12 00:10:00,
2013-01-11 17:11:00,12.3,-2.8,29.71,WSW,258,11.0,19.0,50,0.00,,---,0.00,VWS V14.01,2013-01-12 00:11:00,
2013-01-11 17:20:00,12.3,-5.4,29.74,SW,230,14.0,19.0,44,0.00,,---,0.00,VWS V14.01,2013-01-12 00:20:00,
2013-01-11 17:21:00,12.3,-5.4,29.74,SW,230,14.0,19.0,44,0.00,,---,0.00,VWS V14.01,2013-01-12 00:21:00,
2013-01-11 17:30:00,12.2,-5.1,29.75,West,265,12.0,18.0,45,0.00,,---,0.00,VWS V14.01,2013-01-12 00:30:00,
2013-01-11 17:31:00,12.2,-5.1,29.75,West,265,12.0,18.0,45,0.00,,---,0.00,VWS V14.01,2013-01-12 00:31:00,
2013-01-11 17:40:00,12.0,-4.3,29.75,West,261,7.0,19.0,47,0.00,,---,0.00,VWS V14.01,2013-01-12 00:40:00,
2013-01-11 17:41:00,12.0,-4.3,29.75,West,261,7.0,19.0,47,0.00,,---,0.00,VWS V14.01,2013-01-12 00:41:00,
2013-01-11 17:50:00,11.9,-4.4,29.75,West,269,10.0,23.0,47,0.00,,---,0.00,VWS V14.01,2013-01-12 00:50:00,
2013-01-11 17:51:00,11.9,-4.4,29.75,West,269,10.0,23.0,47,0.00,,---,0.00,VWS V14.01,2013-01-12 00:51:00,
2013-01-11 18:00:00,11.7,-5.1,29.76,West,268,15.0,20.0,46,0.00,,---,0.00,VWS V14.01,2013-01-12 01:00:00,
2013-01-11 18:01:00,11.7,-5.1,29.76,West,268,15.0,20.0,46,0.00,,---,0.00,VWS V14.01,2013-01-12 01:01:00,
2013-01-11 18:10:00,11.3,-3.7,29.76,WNW,283,15.0,22.0,50,0.00,,---,0.00,VWS V14.01,2013-01-12 01:10:00,
2013-01-11 18:11:00,11.3,-3.7,29.76,WNW,283,15.0,22.0,50,0.00,,---,0.00,VWS V14.01,2013-01-12 01:11:00,
2013-01-11 18:20:00,11.3,-4.1,29.77,West,265,9.0,21.0,49,0.00,,---,0.00,VWS V14.01,2013-01-12 01:20:00,
2013-01-11 18:21:00,11.3,-4.1,29.77,West,265,9.0,21.0,49,0.00,,---,0.00,VWS V14.01,2013-01-12 01:21:00,
2013-01-11 18:30:00,11.4,-4.9,29.78,West,273,9.0,23.0,47,0.00,,---,0.00,VWS V14.01,2013-01-12 01:30:00,
2013-01-11 18:31:00,11.4,-4.9,29.78,West,273,9.0,23.0,47,0.00,,---,0.00,VWS V14.01,2013-01-12 01:31:00,
2013-01-11 18:40:00,10.5,-5.3,29.79,West,268,3.0,14.0,48,0.00,,---,0.00,VWS V14.01,2013-01-12 01:40:00,
2013-01-11 18:41:00,10.5,-5.3,29.79,West,268,3.0,14.0,48,0.00,,---,0.00,VWS V14.01,2013-01-12 01:41:00,
2013-01-11 18:50:00,10.0,-6.2,29.79,West,270,0.0,10.0,47,0.00,,---,0.00,VWS V14.01,2013-01-12 01:50:00,
2013-01-11 18:51:00,10.0,-6.2,29.79,West,270,0.0,10.0,47,0.00,,---,0.00,VWS V14.01,2013-01-12 01:51:00,
2013-01-11 19:00:00,10.4,-7.2,29.80,West,260,6.0,16.0,44,0.00,,---,0.00,VWS V14.01,2013-01-12 02:00:00,
2013-01-11 19:01:00,10.4,-7.2,29.80,West,260,6.0,16.0,44,0.00,,---,0.00,VWS V14.01,2013-01-12 02:01:00,
2013-01-11 19:10:00,9.6,-5.7,29.81,NW,313,7.0,15.0,49,0.00,,---,0.00,VWS V14.01,2013-01-12 02:10:00,
2013-01-11 19:11:00,9.6,-5.7,29.81,NW,313,7.0,15.0,49,0.00,,---,0.00,VWS V14.01,2013-01-12 02:11:00,
2013-01-11 19:20:00,9.6,-4.5,29.82,NW,315,0.0,10.0,52,0.00,,---,0.00,VWS V14.01,2013-01-12 02:20:00,
2013-01-11 19:21:00,9.6,-4.5,29.82,NW,315,0.0,10.0,52,0.00,,---,0.00,VWS V14.01,2013-01-12 02:21:00,
2013-01-11 19:30:00,10.5,-5.3,29.82,West,263,14.0,18.0,48,0.00,,---,0.00,VWS V14.01,2013-01-12 02:30:00,
2013-01-11 19:31:00,10.5,-5.3,29.82,West,263,14.0,18.0,48,0.00,,---,0.00,VWS V14.01,2013-01-12 02:31:00,
2013-01-11 19:40:00,10.5,-5.3,29.82,NW,307,10.0,20.0,48,0.00,,---,0.00,VWS V14.01,2013-01-12 02:40:00,
2013-01-11 19:41:00,10.5,-5.3,29.82,NW,307,10.0,20.0,48,0.00,,---,0.00,VWS V14.01,2013-01-12 02:41:00,
2013-01-11 19:50:00,10.5,-4.9,29.83,WNW,288,11.0,14.0,49,0.00,,---,0.00,VWS V14.01,2013-01-12 02:50:00,
2013-01-11 19:51:00,10.5,-4.9,29.83,WNW,288,11.0,14.0,49,0.00,,---,0.00,VWS V14.01,2013-01-12 02:51:00,
2013-01-11 20:00:00,10.6,-4.4,29.83,WNW,285,11.0,15.0,50,0.00,,---,0.00,VWS V14.01,2013-01-12 03:00:00,
2013-01-11 20:01:00,10.6,-4.4,29.83,WNW,285,11.0,15.0,50,0.00,,---,0.00,VWS V14.01,2013-01-12 03:01:00,
2013-01-11 20:10:00,10.4,-4.1,29.90,WNW,286,9.0,14.0,51,0.00,,---,0.00,VWS V14.01,2013-01-12 03:10:00,
2013-01-11 20:11:00,10.4,-4.1,29.90,WNW,286,9.0,14.0,51,0.00,,---,0.00,VWS V14.01,2013-01-12 03:11:00,
2013-01-11 20:20:00,10.1,-4.4,29.90,WNW,286,3.0,10.0,51,0.00,,---,0.00,VWS V14.01,2013-01-12 03:20:00,
2013-01-11 20:21:00,10.1,-4.4,29.90,WNW,286,3.0,10.0,51,0.00,,---,0.00,VWS V14.01,2013-01-12 03:21:00,
2013-01-11 20:30:00,9.9,-3.4,29.89,WNW,286,3.0,5.0,54,0.00,,---,0.00,VWS V14.01,2013-01-12 03:30:00,
2013-01-11 20:31:00,9.9,-3.4,29.89,WNW,286,3.0,5.0,54,0.00,,---,0.00,VWS V14.01,2013-01-12 03:31:00,
2013-01-11 20:40:00,10.1,-2.8,29.90,WNW,286,3.0,10.0,55,0.00,,---,0.00,VWS V14.01,2013-01-12 03:40:00,
2013-01-11 20:41:00,10.1,-2.8,29.90,WNW,286,3.0,10.0,55,0.00,,---,0.00,VWS V14.01,2013-01-12 03:41:00,
2013-01-11 20:50:00,9.9,-3.0,29.90,WNW,286,1.0,7.0,55,0.00,,---,0.00,VWS V14.01,2013-01-12 03:50:00,
2013-01-11 20:51:00,9.9,-3.0,29.90,WNW,286,1.0,7.0,55,0.00,,---,0.00,VWS V14.01,2013-01-12 03:51:00,
2013-01-11 21:00:00,9.4,-4.3,29.90,WNW,286,3.0,7.0,53,0.00,,---,0.00,VWS V14.01,2013-01-12 04:00:00,
2013-01-11 21:01:00,9.4,-4.3,29.90,WNW,286,3.0,7.0,53,0.00,,---,0.00,VWS V14.01,2013-01-12 04:01:00,
2013-01-11 21:10:00,9.6,-4.5,29.88,WNW,286,7.0,7.0,52,0.00,,---,0.00,VWS V14.01,2013-01-12 04:10:00,
2013-01-11 21:11:00,9.6,-4.5,29.88,WNW,286,7.0,7.0,52,0.00,,---,0.00,VWS V14.01,2013-01-12 04:11:00,
2013-01-11 21:20:00,9.7,-4.0,29.88,WNW,286,8.0,13.0,53,0.00,,---,0.00,VWS V14.01,2013-01-12 04:20:00,
2013-01-11 21:21:00,9.7,-4.0,29.88,WNW,286,8.0,13.0,53,0.00,,---,0.00,VWS V14.01,2013-01-12 04:21:00,
2013-01-11 21:30:00,8.7,-3.8,29.90,WNW,290,5.0,12.0,56,0.00,,---,0.00,VWS V14.01,2013-01-12 04:30:00,
2013-01-11 21:31:00,8.7,-3.8,29.90,WNW,290,5.0,12.0,56,0.00,,---,0.00,VWS V14.01,2013-01-12 04:31:00,
2013-01-11 21:40:00,8.4,-4.1,29.91,NNW,345,8.0,16.0,56,0.00,,---,0.00,VWS V14.01,2013-01-12 04:40:00,
2013-01-11 21:41:00,8.4,-4.1,29.91,NNW,345,8.0,16.0,56,0.00,,---,0.00,VWS V14.01,2013-01-12 04:41:00,
2013-01-11 21:50:00,8.1,-2.5,29.92,NNW,345,6.0,10.0,61,0.00,,---,0.00,VWS V14.01,2013-01-12 04:50:00,
2013-01-11 21:51:00,8.1,-2.5,29.92,NNW,345,6.0,10.0,61,0.00,,---,0.00,VWS V14.01,2013-01-12 04:51:00,
2013-01-11 22:00:00,8.0,-2.3,29.92,NNW,344,6.0,11.0,62,0.00,,---,0.00,VWS V14.01,2013-01-12 05:00:00,
2013-01-11 22:01:00,8.0,-2.3,29.92,NNW,344,6.0,11.0,62,0.00,,---,0.00,VWS V14.01,2013-01-12 05:01:00,
2013-01-11 22:10:00,7.3,-2.3,29.94,NNW,344,4.0,9.0,64,0.00,,---,0.00,VWS V14.01,2013-01-12 05:10:00,
2013-01-11 22:11:00,7.3,-2.3,29.94,NNW,344,4.0,9.0,64,0.00,,---,0.00,VWS V14.01,2013-01-12 05:11:00,
2013-01-11 22:20:00,6.7,-2.5,29.94,NNW,344,6.0,8.0,65,0.00,,---,0.00,VWS V14.01,2013-01-12 05:20:00,
2013-01-11 22:21:00,6.7,-2.5,29.94,NNW,344,6.0,8.0,65,0.00,,---,0.00,VWS V14.01,2013-01-12 05:21:00,
2013-01-11 22:30:00,6.2,-2.7,29.94,NNW,344,0.0,6.0,66,0.00,,---,0.00,VWS V14.01,2013-01-12 05:30:00,
2013-01-11 22:31:00,6.2,-2.7,29.94,NNW,344,0.0,6.0,66,0.00,,---,0.00,VWS V14.01,2013-01-12 05:31:00,
2013-01-11 22:40:00,5.9,-2.7,29.94,NNW,344,0.0,0.0,67,0.00,,---,0.00,VWS V14.01,2013-01-12 05:40:00,
2013-01-11 22:41:00,5.9,-2.7,29.94,NNW,344,0.0,0.0,67,0.00,,---,0.00,VWS V14.01,2013-01-12 05:41:00,
2013-01-11 22:50:00,6.1,-3.1,29.94,NNW,344,3.0,10.0,65,0.00,,---,0.00,VWS V14.01,2013-01-12 05:50:00,
2013-01-11 22:51:00,6.1,-3.1,29.94,NNW,344,3.0,10.0,65,0.00,,---,0.00,VWS V14.01,2013-01-12 05:51:00,
2013-01-11 23:00:00,5.7,-4.5,29.95,NNW,344,6.0,7.0,62,0.00,,---,0.00,VWS V14.01,2013-01-12 06:00:00,
2013-01-11 23:01:00,5.7,-4.5,29.95,NNW,344,6.0,7.0,62,0.00,,---,0.00,VWS V14.01,2013-01-12 06:01:00,
2013-01-11 23:10:00,6.7,-4.6,29.95,NNW,340,4.0,11.0,59,0.00,,---,0.00,VWS V14.01,2013-01-12 06:10:00,
2013-01-11 23:11:00,6.7,-4.6,29.95,NNW,340,4.0,11.0,59,0.00,,---,0.00,VWS V14.01,2013-01-12 06:11:00,
2013-01-11 23:20:00,6.1,-5.5,29.97,NNW,340,0.0,5.0,58,0.00,,---,0.00,VWS V14.01,2013-01-12 06:20:00,
2013-01-11 23:21:00,6.1,-5.5,29.97,NNW,340,0.0,5.0,58,0.00,,---,0.00,VWS V14.01,2013-01-12 06:21:00,
2013-01-11 23:30:00,6.7,-5.7,29.96,NNW,340,4.0,10.0,56,0.00,,---,0.00,VWS V14.01,2013-01-12 06:30:00,
2013-01-11 23:31:00,6.7,-5.7,29.96,NNW,340,4.0,10.0,56,0.00,,---,0.00,VWS V14.01,2013-01-12 06:31:00,
2013-01-11 23:40:00,6.5,-5.8,29.96,NNW,340,3.0,9.0,56,0.00,,---,0.00,VWS V14.01,2013-01-12 06:40:00,
2013-01-11 23:41:00,6.5,-5.8,29.96,NNW,340,3.0,9.0,56,0.00,,---,0.00,VWS V14.01,2013-01-12 06:41:00,
2013-01-11 23:50:00,6.9,-6.6,29.95,NNW,338,5.0,11.0,53,0.00,,---,0.00,VWS V14.01,2013-01-12 06:50:00,
2013-01-11 23:51:00,6.9,-6.6,29.95,NNW,338,5.0,11.0,53,0.00,,---,0.00,VWS V14.01,2013-01-12 06:51:00,